LSZS/SMV METAR and TAF weather

Enter ICAO airport designator
Station Type Date Time Source
LSZS METAR 2019/05/25 08:50 UTC NOAA

LSZS 250850Z 35003KT 260V070 9999 BKN062 11/03 Q1018 RMK G


Station Type Date Time Source
LSZS Decoded METAR 2019/05/25 08:50 UTC NOAA

Station name not available
May 25, 2019 - 04:50 AM EDT / 2019.05.25 0850 UTC
Wind: from the N (350 degrees) at 3 MPH (3 KT) (direction variable):0
Visibility: greater than 7 mile(s):0
Sky conditions: mostly cloudy
Temperature: 51 F (11 C)
Dew Point: 37 F (3 C)
Relative Humidity: 57%
Pressure (altimeter): 30.06 in. Hg (1018 hPa)
ob: LSZS 250850Z 35003KT 260V070 9999 BKN062 11/03 Q1018 RMK G
cycle: 9

Station Type Date Time Source
LSZS TAF 2014/12/22 20:03 UTC NOAA

TAF
AMD LSZS 222054Z 2220/2224 CNL

Example: see airport list